createdAt,value
2023-08-24T00:01:33.046Z,101026.72
2023-08-24T00:03:59.905Z,101025.00
2023-08-24T00:06:26.473Z,101021.41
2023-08-24T00:08:52.945Z,101027.56
2023-08-24T00:11:19.507Z,101023.31
2023-08-24T00:13:50.124Z,101023.31
2023-08-24T00:16:17.881Z,101018.09
2023-08-24T00:18:44.668Z,101019.19
2023-08-24T00:21:11.282Z,101013.88
2023-08-24T00:23:38.418Z,101015.66
2023-08-24T00:26:05.127Z,101008.56
2023-08-24T00:28:31.606Z,101016.44
2023-08-24T00:30:58.189Z,101019.19
2023-08-24T00:33:25.395Z,101006.78
2023-08-24T00:35:51.877Z,101010.50
2023-08-24T00:38:18.425Z,101018.44
2023-08-24T00:40:44.992Z,101003.53
2023-08-24T00:43:11.662Z,101015.28
2023-08-24T00:45:38.311Z,100999.44
2023-08-24T00:48:05.424Z,100998.59
2023-08-24T00:50:32.467Z,101001.41
2023-08-24T00:52:59.544Z,101004.69
2023-08-24T00:55:26.223Z,101001.25
2023-08-24T00:57:53.259Z,101003.91
2023-08-24T01:00:19.929Z,101010.28
2023-08-24T01:02:46.561Z,101007.91
2023-08-24T01:05:13.397Z,101008.25
2023-08-24T01:07:41.407Z,101006.47
2023-08-24T01:10:10.375Z,101000.22
2023-08-24T01:12:57.112Z,101001.97
2023-08-24T01:15:38.519Z,100992.28
2023-08-24T01:18:10.173Z,101002.97
2023-08-24T01:20:38.213Z,100988.06
2023-08-24T01:23:28.674Z,100986.97
2023-08-24T01:26:15.147Z,100995.75
2023-08-24T01:28:44.456Z,101005.09
2023-08-24T01:31:11.373Z,101000.81
2023-08-24T01:33:38.088Z,100995.84
2023-08-24T01:36:04.802Z,100995.00
2023-08-24T01:38:31.606Z,100997.63
2023-08-24T01:41:13.005Z,101003.88
2023-08-24T01:43:44.442Z,100997.78
2023-08-24T01:46:16.097Z,100990.81
2023-08-24T01:48:43.941Z,100987.31
2023-08-24T01:51:11.481Z,100997.78
2023-08-24T01:53:40.538Z,100989.16
2023-08-24T01:56:14.523Z,100984.00
2023-08-24T01:58:41.112Z,100976.25
2023-08-24T02:01:09.212Z,100968.31
2023-08-24T02:03:36.070Z,100956.94
2023-08-24T02:06:02.873Z,100947.97
2023-08-24T02:08:29.718Z,100955.06
2023-08-24T02:10:56.209Z,100958.66
2023-08-24T02:13:22.775Z,100956.22
2023-08-24T02:15:49.335Z,100949.06
2023-08-24T02:18:15.845Z,100950.91
2023-08-24T02:20:42.365Z,100955.41
2023-08-24T02:23:08.923Z,100951.13
2023-08-24T02:25:35.393Z,100954.75
2023-08-24T02:28:01.900Z,100950.44
2023-08-24T02:30:28.418Z,100960.28
2023-08-24T02:32:55.014Z,100966.00
2023-08-24T02:35:21.639Z,100963.19
2023-08-24T02:37:48.477Z,100957.03
2023-08-24T02:40:15.473Z,100958.66
2023-08-24T02:42:42.031Z,100955.94
2023-08-24T02:45:08.832Z,100952.91
2023-08-24T02:47:35.314Z,100958.06
2023-08-24T02:50:01.819Z,100953.75
2023-08-24T02:52:28.381Z,100962.56
2023-08-24T02:54:54.855Z,100960.94
2023-08-24T02:57:21.335Z,100956.63
2023-08-24T02:59:47.915Z,100958.72
2023-08-24T03:02:14.517Z,100958.97
2023-08-24T03:04:41.253Z,100948.25
2023-08-24T03:07:09.280Z,100938.38
2023-08-24T03:09:36.572Z,100949.41
2023-08-24T03:12:03.973Z,100948.31
2023-08-24T03:14:30.466Z,100944.88
2023-08-24T03:16:56.945Z,100948.53
2023-08-24T03:19:23.432Z,100935.59
2023-08-24T03:21:49.897Z,100948.13
2023-08-24T03:24:16.433Z,100933.88
2023-08-24T03:26:42.920Z,100935.44
2023-08-24T03:29:09.390Z,100928.13
2023-08-24T03:31:35.966Z,100927.97
2023-08-24T03:34:04.718Z,100943.59
2023-08-24T03:36:31.327Z,100944.38
2023-08-24T03:38:57.766Z,100949.66
2023-08-24T03:41:24.232Z,100959.22
2023-08-24T03:43:50.906Z,100960.16
2023-08-24T03:46:17.506Z,100972.75
2023-08-24T03:48:44.101Z,100977.25
2023-08-24T03:51:10.601Z,100984.44
2023-08-24T03:53:37.089Z,100992.22
2023-08-24T03:56:03.729Z,100996.59
2023-08-24T03:58:30.448Z,100987.72
2023-08-24T04:00:56.980Z,100975.28
2023-08-24T04:03:23.731Z,100967.97
2023-08-24T04:05:50.320Z,100965.06
2023-08-24T04:08:17.310Z,100959.47
2023-08-24T04:10:43.900Z,100946.94
2023-08-24T04:13:10.423Z,100947.63
2023-08-24T04:15:36.968Z,100949.44
2023-08-24T04:18:03.755Z,100944.00
2023-08-24T04:20:30.231Z,100942.22
2023-08-24T04:22:57.582Z,100942.22
2023-08-24T04:25:24.581Z,100942.06
2023-08-24T04:27:51.313Z,100935.81
2023-08-24T04:30:18.015Z,100933.25
2023-08-24T04:32:44.621Z,100929.75
2023-08-24T04:35:11.456Z,100922.81
2023-08-24T04:37:39.269Z,100911.34
2023-08-24T04:40:12.198Z,100911.34
2023-08-24T04:42:38.692Z,100927.25
2023-08-24T04:45:05.532Z,100921.13
2023-08-24T04:47:32.102Z,100907.94
2023-08-24T04:49:58.602Z,100896.66
2023-08-24T04:52:25.292Z,100898.38
2023-08-24T04:54:51.741Z,100890.50
2023-08-24T04:57:19.150Z,100886.06
2023-08-24T04:59:45.651Z,100877.44
2023-08-24T05:02:12.170Z,100872.13
2023-08-24T05:04:38.721Z,100854.53
2023-08-24T05:07:05.302Z,100841.19
2023-08-24T05:09:31.808Z,100827.88
2023-08-24T05:11:58.386Z,100824.34
2023-08-24T05:14:24.943Z,100831.44
2023-08-24T05:16:51.457Z,100838.53
2023-08-24T05:19:17.963Z,100836.22
2023-08-24T05:21:44.445Z,100838.63
2023-08-24T05:24:10.956Z,100843.78
2023-08-24T05:26:37.463Z,100841.78
2023-08-24T05:29:04.322Z,100840.84
2023-08-24T05:31:30.892Z,100840.69
2023-08-24T05:33:57.448Z,100847.56
2023-08-24T05:36:24.059Z,100847.47
2023-08-24T05:39:04.932Z,100846.47
2023-08-24T05:41:32.991Z,100848.06
2023-08-24T05:43:59.591Z,100839.16
2023-08-24T05:46:26.128Z,100834.63
2023-08-24T05:48:52.718Z,100826.59
2023-08-24T05:51:19.233Z,100820.31
2023-08-24T05:53:45.788Z,100811.50
2023-08-24T05:56:12.436Z,100813.91
2023-08-24T05:58:38.894Z,100807.66
2023-08-24T06:01:05.458Z,100812.88
2023-08-24T06:03:32.026Z,100810.31
2023-08-24T06:06:04.328Z,100810.19
2023-08-24T06:08:31.430Z,100806.59
2023-08-24T06:10:58.966Z,100803.00
2023-08-24T06:13:25.778Z,100803.69
2023-08-24T06:15:52.518Z,100794.66
2023-08-24T06:18:19.213Z,100795.28
2023-08-24T06:20:46.922Z,100797.72
2023-08-24T06:23:16.241Z,100780.72
2023-08-24T06:25:43.068Z,100780.59
2023-08-24T06:28:10.379Z,100775.28
2023-08-24T06:30:40.996Z,100784.00
2023-08-24T06:33:08.271Z,100774.25
2023-08-24T06:35:35.289Z,100769.03
2023-08-24T06:38:03.126Z,100766.28
2023-08-24T06:40:30.100Z,100766.22
2023-08-24T06:42:57.492Z,100755.59
2023-08-24T06:45:24.186Z,100743.09
2023-08-24T06:47:51.061Z,100749.25
2023-08-24T06:50:18.083Z,100741.25
2023-08-24T06:52:44.524Z,100736.72
2023-08-24T06:55:11.572Z,100740.06
2023-08-24T06:57:38.263Z,100739.75
2023-08-24T07:00:11.328Z,100736.81
2023-08-24T07:02:38.182Z,100733.84
2023-08-24T07:05:09.756Z,100723.94
2023-08-24T07:07:36.721Z,100719.94
2023-08-24T07:10:04.443Z,100724.13
2023-08-24T07:12:31.176Z,100725.75
2023-08-24T07:14:57.674Z,100720.44
2023-08-24T07:17:24.215Z,100717.88
2023-08-24T07:19:50.879Z,100717.56
2023-08-24T07:22:21.003Z,100717.38
2023-08-24T07:24:47.506Z,100719.78
2023-08-24T07:27:14.276Z,100718.94
2023-08-24T07:29:41.046Z,100718.09
2023-08-24T07:32:07.678Z,100722.88
2023-08-24T07:34:34.324Z,100727.94
2023-08-24T07:37:00.816Z,100720.72
2023-08-24T07:39:27.344Z,100710.09
2023-08-24T07:41:53.927Z,100714.31
2023-08-24T07:44:20.572Z,100717.59
2023-08-24T07:46:48.895Z,100717.44
2023-08-24T07:49:15.431Z,100718.19
2023-08-24T07:51:43.934Z,100720.75
2023-08-24T07:54:10.519Z,100717.88
2023-08-24T07:56:37.564Z,100712.38
2023-08-24T07:59:04.139Z,100715.25
2023-08-24T08:01:31.864Z,100720.06
2023-08-24T08:03:58.669Z,100712.78
2023-08-24T08:06:26.350Z,100721.59
2023-08-24T08:08:53.118Z,100723.91
2023-08-24T08:11:22.469Z,100727.34
2023-08-24T08:13:49.523Z,100722.59
2023-08-24T08:16:16.171Z,100723.19
2023-08-24T08:18:42.686Z,100722.56
2023-08-24T08:21:21.908Z,100724.09
2023-08-24T08:23:50.644Z,100722.13
2023-08-24T08:26:17.465Z,100724.41
2023-08-24T08:28:44.152Z,100715.91
2023-08-24T08:31:10.813Z,100705.47
2023-08-24T08:33:37.398Z,100693.53
2023-08-24T08:36:04.608Z,100697.78
2023-08-24T08:38:31.218Z,100698.47
2023-08-24T08:41:04.073Z,100700.00
2023-08-24T08:43:31.524Z,100706.47
2023-08-24T08:46:00.496Z,100703.13
2023-08-24T08:48:28.518Z,100702.00
2023-08-24T08:50:56.865Z,100704.84
2023-08-24T08:53:24.560Z,100702.00
2023-08-24T08:55:56.239Z,100694.94
2023-08-24T08:58:23.830Z,100689.31
2023-08-24T09:00:50.964Z,100682.44
2023-08-24T09:03:20.035Z,100678.38
2023-08-24T09:05:50.261Z,100668.84
2023-08-24T09:08:19.986Z,100662.88
2023-08-24T09:10:46.650Z,100660.84
2023-08-24T09:13:13.457Z,100651.06
2023-08-24T09:15:40.380Z,100646.84
2023-08-24T09:18:07.115Z,100639.38
2023-08-24T09:20:35.432Z,100635.81
2023-08-24T09:23:02.538Z,100633.50
2023-08-24T09:25:29.167Z,100623.47
2023-08-24T09:28:09.114Z,100621.47
2023-08-24T09:30:36.908Z,100612.06
2023-08-24T09:33:04.546Z,100598.72
2023-08-24T09:35:36.640Z,100588.19
2023-08-24T09:38:18.467Z,100585.09
2023-08-24T09:40:52.155Z,100575.41
2023-08-24T09:43:18.756Z,100564.13
2023-08-24T09:45:58.835Z,100564.66
2023-08-24T09:48:28.592Z,100573.75
2023-08-24T09:50:57.893Z,100585.78
2023-08-24T09:53:24.946Z,100590.69
2023-08-24T09:55:58.451Z,100598.59
2023-08-24T09:58:25.689Z,100598.47
2023-08-24T10:00:52.965Z,100610.00
2023-08-24T10:03:23.960Z,100609.91
2023-08-24T10:05:58.937Z,100614.69
2023-08-24T10:08:42.877Z,100624.41
2023-08-24T10:11:16.172Z,100618.84
2023-08-24T10:14:16.697Z,100604.53
2023-08-24T10:16:45.553Z,100594.41
2023-08-24T10:19:16.970Z,100611.06
2023-08-24T10:21:43.994Z,100616.28
2023-08-24T10:24:12.422Z,100619.25
2023-08-24T10:26:40.882Z,100617.56
2023-08-24T10:29:08.398Z,100629.63
2023-08-24T10:31:36.228Z,100630.97
2023-08-24T10:34:03.904Z,100624.66
2023-08-24T10:36:30.999Z,100623.81
2023-08-24T10:39:00.405Z,100636.25
2023-08-24T10:41:30.629Z,100635.66
2023-08-24T10:44:12.537Z,100641.59
2023-08-24T10:46:39.749Z,100649.75
2023-08-24T10:49:06.308Z,100645.00
2023-08-24T10:51:43.739Z,100646.50
2023-08-24T10:54:11.955Z,100646.50
2023-08-24T10:56:40.349Z,100646.81
2023-08-24T10:59:18.050Z,100636.59
2023-08-24T11:01:55.375Z,100642.56
2023-08-24T11:04:22.021Z,100626.28
2023-08-24T11:06:54.126Z,100622.53
2023-08-24T11:09:21.091Z,100621.25
2023-08-24T11:11:58.858Z,100616.38
2023-08-24T11:14:28.367Z,100617.63
2023-08-24T11:17:00.356Z,100603.28
2023-08-24T11:19:27.448Z,100602.22
2023-08-24T11:21:54.593Z,100591.78
2023-08-24T11:24:21.151Z,100603.53
2023-08-24T11:26:49.453Z,100603.78
2023-08-24T11:29:19.869Z,100610.84
2023-08-24T11:31:46.553Z,100605.88
2023-08-24T11:34:16.568Z,100611.81
2023-08-24T11:36:50.057Z,100632.63
2023-08-24T11:39:21.512Z,100632.22
2023-08-24T11:42:04.806Z,100629.56
2023-08-24T11:44:47.334Z,100642.34
2023-08-24T11:47:14.113Z,100640.41
2023-08-24T11:49:40.996Z,100633.22
2023-08-24T11:52:09.216Z,100641.78
2023-08-24T11:54:39.350Z,100631.78
2023-08-24T11:57:12.599Z,100647.16
2023-08-24T11:59:41.125Z,100644.03
2023-08-24T12:02:10.814Z,100646.34
2023-08-24T12:04:43.618Z,100642.69
2023-08-24T12:07:14.270Z,100642.34
2023-08-24T12:09:41.881Z,100642.09
2023-08-24T12:12:14.435Z,100633.09
2023-08-24T12:14:42.373Z,100623.34
2023-08-24T12:17:10.340Z,100609.63
2023-08-24T12:19:36.820Z,100617.13
2023-08-24T12:22:03.818Z,100602.66
2023-08-24T12:24:30.306Z,100582.66
2023-08-24T12:27:00.990Z,100577.66
2023-08-24T12:29:27.636Z,100570.69
2023-08-24T12:31:59.252Z,100555.34
2023-08-24T12:34:25.745Z,100569.69
2023-08-24T12:36:56.004Z,100558.59
2023-08-24T12:39:22.849Z,100537.66
2023-08-24T12:41:49.348Z,100539.75
2023-08-24T12:44:16.297Z,100548.75
2023-08-24T12:46:42.983Z,100537.28
2023-08-24T12:49:09.515Z,100522.31
2023-08-24T12:51:36.058Z,100522.00
2023-08-24T12:54:02.556Z,100509.59
2023-08-24T12:56:29.106Z,100505.94
2023-08-24T12:58:56.285Z,100495.97
2023-08-24T13:01:22.992Z,100490.38
2023-08-24T13:03:49.666Z,100485.75
2023-08-24T13:06:24.237Z,100479.22
2023-08-24T13:08:53.692Z,100471.19
2023-08-24T13:11:20.509Z,100474.84
2023-08-24T13:13:47.185Z,100503.03
2023-08-24T13:16:13.887Z,100504.13
2023-08-24T13:18:40.580Z,100497.91
2023-08-24T13:21:07.282Z,100495.97
2023-08-24T13:23:34.899Z,100481.88
2023-08-24T13:26:02.019Z,100475.75
2023-08-24T13:28:30.731Z,100469.94
2023-08-24T13:30:57.476Z,100478.44
2023-08-24T13:33:24.277Z,100504.41
2023-08-24T13:35:50.756Z,100505.72
2023-08-24T13:38:17.355Z,100495.13
2023-08-24T13:40:44.341Z,100487.84
2023-08-24T13:43:12.039Z,100490.66
2023-08-24T13:45:38.581Z,100500.50
2023-08-24T13:48:05.542Z,100497.81
2023-08-24T13:50:32.091Z,100504.88
2023-08-24T13:53:13.525Z,100520.91
2023-08-24T13:55:41.864Z,100515.34
2023-08-24T13:58:08.378Z,100496.38
2023-08-24T14:00:35.397Z,100498.09
2023-08-24T14:03:01.994Z,100512.44
2023-08-24T14:05:28.531Z,100504.53
2023-08-24T14:07:55.257Z,100511.91
2023-08-24T14:10:21.877Z,100508.25
2023-08-24T14:12:48.431Z,100488.81
2023-08-24T14:15:15.163Z,100475.56
2023-08-24T14:17:41.734Z,100490.75
2023-08-24T14:20:10.243Z,100483.00
2023-08-24T14:22:36.804Z,100483.00
2023-08-24T14:25:03.411Z,100500.00
2023-08-24T14:27:29.909Z,100489.41
2023-08-24T14:29:56.379Z,100483.19
2023-08-24T14:32:24.456Z,100486.13
2023-08-24T14:34:51.026Z,100487.22
2023-08-24T14:37:17.986Z,100488.91
2023-08-24T14:39:44.496Z,100491.72
2023-08-24T14:42:11.251Z,100503.59
2023-08-24T14:44:37.757Z,100514.53
2023-08-24T14:47:04.412Z,100517.31
2023-08-24T14:49:31.209Z,100522.00
2023-08-24T14:51:57.932Z,100515.09
2023-08-24T14:54:24.450Z,100508.03
2023-08-24T14:56:51.049Z,100507.66
2023-08-24T14:59:18.311Z,100517.81
2023-08-24T15:01:46.104Z,100523.38
2023-08-24T15:04:12.661Z,100523.63
2023-08-24T15:06:39.252Z,100516.59
2023-08-24T15:09:06.023Z,100518.72
2023-08-24T15:11:32.499Z,100504.00
2023-08-24T15:13:59.065Z,100503.50
2023-08-24T15:16:25.548Z,100502.94
2023-08-24T15:18:52.108Z,100498.78
2023-08-24T15:21:18.686Z,100483.94
2023-08-24T15:23:45.242Z,100479.16
2023-08-24T15:26:11.815Z,100480.25
2023-08-24T15:29:11.013Z,100480.47
2023-08-24T15:31:37.725Z,100485.28
2023-08-24T15:34:04.921Z,100479.34
2023-08-24T15:36:54.769Z,100477.84
2023-08-24T15:39:21.239Z,100483.28
2023-08-24T15:41:47.882Z,100495.03
2023-08-24T15:44:14.364Z,100504.22
2023-08-24T15:46:40.855Z,100517.78
2023-08-24T15:49:07.403Z,100520.88
2023-08-24T15:51:33.898Z,100516.84
2023-08-24T15:54:01.588Z,100498.38
2023-08-24T15:56:28.258Z,100495.94
2023-08-24T15:58:54.748Z,100495.19
2023-08-24T16:01:21.301Z,100486.53
2023-08-24T16:03:47.926Z,100470.75
2023-08-24T16:06:14.533Z,100468.47
2023-08-24T16:08:41.046Z,100467.84
2023-08-24T16:11:07.520Z,100444.72
2023-08-24T16:13:34.022Z,100441.94
2023-08-24T16:16:00.553Z,100433.38
2023-08-24T16:18:27.138Z,100431.69
2023-08-24T16:20:54.027Z,100423.69
2023-08-24T16:23:21.193Z,100425.31
2023-08-24T16:25:48.021Z,100410.34
2023-08-24T16:28:15.114Z,100402.34
2023-08-24T16:30:41.688Z,100392.44
2023-08-24T16:33:08.330Z,100379.19
2023-08-24T16:35:34.838Z,100381.13
2023-08-24T16:38:01.345Z,100378.16
2023-08-24T16:40:27.847Z,100366.41
2023-08-24T16:42:54.320Z,100362.03
2023-08-24T16:45:23.088Z,100356.69
2023-08-24T16:48:06.397Z,100347.72
2023-08-24T16:50:33.003Z,100342.16
2023-08-24T16:52:59.452Z,100336.44
2023-08-24T16:55:26.014Z,100320.19
2023-08-24T16:57:53.287Z,100304.28
2023-08-24T17:00:20.231Z,100303.25
2023-08-24T17:02:46.816Z,100286.47
2023-08-24T17:05:13.489Z,100273.25
2023-08-24T17:07:41.102Z,100260.03
2023-08-24T17:10:08.851Z,100257.38
2023-08-24T17:12:36.378Z,100254.69
2023-08-24T17:15:04.175Z,100247.66
2023-08-24T17:17:30.840Z,100239.00
2023-08-24T17:19:57.518Z,100223.13
2023-08-24T17:22:24.131Z,100216.66
2023-08-24T17:24:50.684Z,100230.34
2023-08-24T17:27:17.307Z,100245.81
2023-08-24T17:29:43.859Z,100254.78
2023-08-24T17:32:10.359Z,100263.84
2023-08-24T17:34:36.919Z,100267.25
2023-08-24T17:37:03.455Z,100256.72
2023-08-24T17:39:31.097Z,100277.91
2023-08-24T17:41:57.640Z,100289.56
2023-08-24T17:44:24.202Z,100287.00
2023-08-24T17:46:50.722Z,100283.69
2023-08-24T17:49:17.282Z,100295.31
2023-08-24T17:51:43.990Z,100291.81
2023-08-24T17:54:10.529Z,100288.50
2023-08-24T17:56:37.036Z,100293.00
2023-08-24T17:59:03.513Z,100301.00
2023-08-24T18:01:30.185Z,100303.75
2023-08-24T18:03:57.052Z,100298.31
2023-08-24T18:06:29.394Z,100292.88
2023-08-24T18:08:55.914Z,100286.59
2023-08-24T18:11:22.511Z,100282.84
2023-08-24T18:13:49.375Z,100278.59
2023-08-24T18:16:16.278Z,100281.56
2023-08-24T18:18:44.096Z,100280.94
2023-08-24T18:21:10.825Z,100273.19
2023-08-24T18:23:37.337Z,100267.09
2023-08-24T18:26:05.134Z,100274.59
2023-08-24T18:28:31.675Z,100267.56
2023-08-24T18:30:58.831Z,100263.28
2023-08-24T18:33:26.094Z,100264.47
2023-08-24T18:35:54.045Z,100270.97
2023-08-24T18:38:21.218Z,100267.69
2023-08-24T18:40:51.978Z,100258.94
2023-08-24T18:43:18.972Z,100263.31
2023-08-24T18:45:46.591Z,100251.16
2023-08-24T18:48:13.318Z,100255.50
2023-08-24T18:50:39.970Z,100264.28
2023-08-24T18:53:06.442Z,100258.19
2023-08-24T18:55:32.995Z,100262.97
2023-08-24T18:57:59.516Z,100273.00
2023-08-24T19:00:26.022Z,100275.03
2023-08-24T19:02:52.512Z,100281.72
2023-08-24T19:05:19.078Z,100266.50
2023-08-24T19:07:46.088Z,100258.41
2023-08-24T19:10:12.678Z,100265.31
2023-08-24T19:12:40.462Z,100266.81
2023-08-24T19:15:07.596Z,100261.28
2023-08-24T19:17:34.086Z,100251.38
2023-08-24T19:20:00.712Z,100254.88
2023-08-24T19:22:27.191Z,100256.69
2023-08-24T19:24:53.655Z,100255.41
2023-08-24T19:27:20.936Z,100250.19
2023-08-24T19:29:47.512Z,100256.25
2023-08-24T19:32:14.008Z,100267.97
2023-08-24T19:34:40.540Z,100263.72
2023-08-24T19:37:07.056Z,100264.78
2023-08-24T19:39:33.536Z,100262.00
2023-08-24T19:42:00.515Z,100264.13
2023-08-24T19:44:27.422Z,100259.03
2023-08-24T19:47:01.121Z,100263.69
2023-08-24T19:49:31.641Z,100262.41
2023-08-24T19:51:58.145Z,100258.34
2023-08-24T19:54:24.855Z,100246.00
2023-08-24T19:56:51.359Z,100247.88
2023-08-24T19:59:17.935Z,100247.22
2023-08-24T20:01:44.472Z,100245.41
2023-08-24T20:04:11.236Z,100246.06
2023-08-24T20:06:38.141Z,100245.31
2023-08-24T20:09:07.042Z,100245.41
2023-08-24T20:11:33.537Z,100241.63
2023-08-24T20:14:00.757Z,100239.06
2023-08-24T20:16:27.503Z,100242.97
2023-08-24T20:18:54.832Z,100231.03
2023-08-24T20:21:22.711Z,100229.44
2023-08-24T20:23:49.485Z,100244.53
2023-08-24T20:26:17.615Z,100237.59
2023-08-24T20:28:44.264Z,100244.19
2023-08-24T20:31:11.122Z,100242.03
2023-08-24T20:33:37.657Z,100244.03
2023-08-24T20:36:05.485Z,100241.78
2023-08-24T20:38:32.587Z,100236.38
2023-08-24T20:41:04.012Z,100245.00
2023-08-24T20:43:31.550Z,100247.84
2023-08-24T20:45:58.171Z,100242.75
2023-08-24T20:48:24.684Z,100237.34
2023-08-24T20:50:55.968Z,100239.25
2023-08-24T20:53:22.475Z,100233.94
2023-08-24T20:55:49.099Z,100242.09
2023-08-24T20:58:16.876Z,100241.22
2023-08-24T21:00:44.605Z,100238.56
2023-08-24T21:03:11.306Z,100236.03
2023-08-24T21:05:37.846Z,100250.88
2023-08-24T21:08:05.096Z,100251.72
2023-08-24T21:10:31.672Z,100258.94
2023-08-24T21:12:58.205Z,100262.09
2023-08-24T21:15:24.729Z,100267.88
2023-08-24T21:17:51.532Z,100289.78
2023-08-24T21:20:20.509Z,100302.22
2023-08-24T21:22:51.180Z,100297.88
2023-08-24T21:25:17.708Z,100305.84
2023-08-24T21:27:44.237Z,100303.06
2023-08-24T21:30:11.130Z,100327.03
2023-08-24T21:32:37.681Z,100339.13
2023-08-24T21:35:04.876Z,100329.81
2023-08-24T21:37:33.221Z,100335.63
2023-08-24T21:40:00.697Z,100345.63
2023-08-24T21:42:27.180Z,100346.16
2023-08-24T21:44:53.645Z,100336.19
2023-08-24T21:47:20.108Z,100342.75
2023-08-24T21:49:46.684Z,100348.72
2023-08-24T21:52:13.204Z,100355.66
2023-08-24T21:54:39.639Z,100345.69
2023-08-24T21:57:06.247Z,100339.25
2023-08-24T21:59:32.827Z,100342.44
2023-08-24T22:01:59.365Z,100339.63
2023-08-24T22:04:25.965Z,100321.03
2023-08-24T22:06:52.490Z,100328.78
2023-08-24T22:09:19.031Z,100330.38
2023-08-24T22:11:45.577Z,100332.19
2023-08-24T22:14:12.122Z,100335.06
2023-08-24T22:16:38.704Z,100328.88
2023-08-24T22:19:10.625Z,100317.19
2023-08-24T22:21:40.680Z,100317.94
2023-08-24T22:24:07.321Z,100310.81
2023-08-24T22:26:33.869Z,100315.19
2023-08-24T22:29:00.416Z,100306.38
2023-08-24T22:31:26.985Z,100309.03
2023-08-24T22:33:53.515Z,100307.22
2023-08-24T22:36:19.983Z,100309.81
2023-08-24T22:38:46.538Z,100315.13
2023-08-24T22:41:12.979Z,100296.41
2023-08-24T22:43:39.481Z,100291.00
2023-08-24T22:46:06.049Z,100284.72
2023-08-24T22:48:32.586Z,100281.94
2023-08-24T22:50:59.094Z,100271.31
2023-08-24T22:53:25.561Z,100259.84
2023-08-24T22:55:52.092Z,100270.47
2023-08-24T22:58:18.646Z,100274.09
2023-08-24T23:00:45.114Z,100264.31
2023-08-24T23:03:12.742Z,100265.16
2023-08-24T23:05:40.265Z,100268.78
2023-08-24T23:08:08.142Z,100253.88
2023-08-24T23:10:34.796Z,100252.19
2023-08-24T23:13:01.438Z,100244.28
2023-08-24T23:15:31.012Z,100241.63
2023-08-24T23:17:57.837Z,100245.22
2023-08-24T23:20:24.513Z,100252.47
2023-08-24T23:22:51.073Z,100265.97
2023-08-24T23:25:17.686Z,100263.59
2023-08-24T23:27:44.282Z,100262.72
2023-08-24T23:30:11.402Z,100262.84
2023-08-24T23:32:40.152Z,100264.63
2023-08-24T23:35:07.093Z,100267.41
2023-08-24T23:37:33.575Z,100264.19
2023-08-24T23:40:00.035Z,100266.94
2023-08-24T23:42:28.647Z,100262.69
2023-08-24T23:44:55.652Z,100262.84
2023-08-24T23:47:22.360Z,100260.50
2023-08-24T23:49:48.856Z,100259.66
2023-08-24T23:52:15.325Z,100260.50
2023-08-24T23:54:41.937Z,100250.13
2023-08-24T23:57:08.379Z,100261.81
2023-08-24T23:59:34.840Z,100244.28
